Latest Weather Observations for Lucinda

IDQ60801

Issued at 9:32 am EST Thursday 3 September 2015 (issued every 30 minutes, with the page automatically refreshed every 10 minutes)

About weather observations | Map of weather stations | Latest weather observations for QLD | Other Formats
Station Details ID: 032141 Name: LUCINDA POINT Lat: -18.52 Lon: 146.39 Height: 10.0 m
Data from the previous 72 hours. | See also: Recent months at Lucinda
Date/Time
EST
Temp
°C
App
Temp
°C
Dew
Point
Rel
Hum
%
Delta-T
°C
Wind Press
QNH
hPa
Press
MSL
hPa
Rain
since 9 am
mm
Dir
 
Spd
km/h
Gust
km/h
Spd
kts
Gust
kts
03/09:30am 24.2 28.1 20.3 79 2.5 CALM 0 6 0 3 1019.0 1019.0 0.0
03/09:00am 22.8 25.1 19.8 83 1.9 SW 7 9 4 5 1018.8 1018.8 0.0
03/08:30am 22.2 24.1 19.7 86 1.6 SW 9 13 5 7 1018.7 1018.7 0.0
03/08:00am 21.7 21.5 19.4 87 1.5 WSW 19 22 10 12 1018.5 1018.5 0.0
03/07:30am 21.4 19.4 19.9 91 1.0 SW 30 32 16 17 1018.4 1018.4 0.0
03/07:00am 22.1 22.1 19.8 87 1.5 SW 19 22 10 12 1017.4 1017.4 0.0
03/06:30am 22.7 23.9 20.0 85 1.7 SW 13 20 7 11 1016.8 1016.8 0.0
03/06:00am 23.2 24.1 20.0 82 2.1 NW 15 24 8 13 1016.1 1016.1 0.0
03/05:30am 23.6 22.4 20.1 81 2.3 NNW 26 30 14 16 1015.6 1015.6 0.0
03/05:00am 23.7 21.8 20.2 81 2.3 NNW 30 33 16 18 1015.2 1015.2 0.0
03/04:30am 23.6 21.9 19.9 80 2.4 NNW 28 32 15 17 1015.1 1015.1 0.0
03/04:00am 23.7 22.6 20.2 81 2.3 NNW 26 32 14 17 1015.1 1015.1 0.0
03/03:30am 23.7 22.2 20.2 81 2.3 NNW 28 33 15 18 1015.1 1015.1 0.0
03/03:00am 23.7 23.5 19.8 79 2.5 NNW 20 28 11 15 1015.4 1015.4 0.0
03/02:30am 23.9 22.5 20.4 81 2.3 NNW 28 37 15 20 1015.4 1015.4 0.0
03/02:00am 23.8 21.8 20.7 83 2.0 NNW 32 37 17 20 1015.1 1015.1 0.0
03/01:30am 23.8 21.0 20.3 81 2.3 NNW 35 39 19 21 1015.4 1015.4 0.0
03/01:00am 23.9 21.4 20.8 83 2.0 NNW 35 43 19 23 1015.5 1015.5 0.0
03/12:30am 23.9 20.1 20.6 82 2.2 NNW 41 46 22 25 1015.6 1015.6 0.0
03/12:00am 24.0 22.1 21.3 85 1.8 NNW 33 41 18 22 1015.9 1015.9 0.0
 
Date/Time
EST
Temp
°C
App
Temp
°C
Dew
Point
Rel
Hum
%
Delta-T
°C
Wind Press
QNH
hPa
Press
MSL
hPa
Rain
since 9 am
mm
Dir
 
Spd
km/h
Gust
km/h
Spd
kts
Gust
kts
02/11:30pm 24.1 22.4 21.4 85 1.8 NNW 32 39 17 21 1016.0 1016.0 0.0
02/11:00pm 24.1 23.0 21.0 83 2.0 NNW 28 35 15 19 1016.5 1016.5 0.0
02/10:30pm 24.1 23.1 21.2 84 1.9 NNW 28 33 15 18 1016.3 1016.3 0.0
02/10:00pm 24.0 22.7 20.7 82 2.2 NNW 28 35 15 19 1016.1 1016.1 0.0
02/09:30pm 24.2 22.6 20.7 81 2.3 N 30 37 16 20 1015.9 1015.9 0.0
02/09:00pm 24.1 22.0 20.6 81 2.3 NNW 32 39 17 21 1015.8 1015.8 0.0
02/08:30pm 24.1 21.9 20.8 82 2.2 NNW 33 39 18 21 1015.6 1015.6 0.0
02/08:00pm 24.1 21.6 20.8 82 2.2 NNW 35 44 19 24 1015.4 1015.4 0.0
02/07:30pm 24.1 21.7 21.0 83 2.0 NNW 35 43 19 23 1015.1 1015.1 0.0
02/07:00pm 24.2 21.9 21.3 84 1.9 NNW 35 44 19 24 1014.6 1014.6 0.0
02/06:30pm 24.1 22.0 21.0 83 2.0 NNW 33 41 18 22 1014.3 1014.3 0.0
02/06:00pm 24.2 22.1 20.9 82 2.2 N 33 41 18 22 1014.1 1014.1 0.0
02/05:30pm 24.4 21.8 20.7 80 2.4 NNW 35 41 19 22 1013.9 1013.9 0.0
02/05:00pm 24.5 22.0 20.8 80 2.4 N 35 43 19 23 1013.7 1013.7 0.0
02/04:30pm 24.6 22.4 20.7 79 2.6 N 33 41 18 22 1013.7 1013.7 0.0
02/04:00pm 24.6 22.4 20.7 79 2.6 N 33 44 18 24 1013.7 1013.7 0.0
02/03:30pm 24.5 21.5 20.6 79 2.5 N 37 46 20 25 1013.7 1013.7 0.0
02/03:00pm 24.5 22.1 20.4 78 2.7 N 33 41 18 22 1014.1 1014.1 0.0
02/02:30pm 24.5 22.3 20.8 80 2.4 NNW 33 39 18 21 1014.5 1014.5 0.0
02/02:00pm 24.6 22.5 20.9 80 2.4 NNW 33 41 18 22 1015.0 1015.0 0.0
02/01:30pm 24.5 21.9 20.6 79 2.5 N 35 43 19 23 1015.4 1015.4 0.0
02/01:00pm 24.6 22.0 20.7 79 2.5 N 35 43 19 23 1016.0 1016.0 0.0
02/12:30pm 24.6 21.9 20.5 78 2.7 NNW 35 41 19 22 1016.7 1016.7 0.0
02/12:00pm 24.8 22.6 20.7 78 2.7 N 33 41 18 22 1017.3 1017.3 0.0
02/11:30am 24.9 22.6 20.6 77 2.8 N 33 39 18 21 1017.9 1017.9 0.0
02/11:00am 24.6 23.0 20.7 79 2.5 N 30 35 16 19 1018.3 1018.3 0.0
02/10:30am 24.9 23.7 20.8 78 2.7 NNW 28 33 15 18 1018.7 1018.7 0.0
02/10:00am 25.1 24.5 20.4 75 3.1 NNW 24 30 13 16 1019.2 1019.2 0.0
02/09:30am 24.8 24.2 20.5 77 2.8 NNW 24 28 13 15 1019.3 1019.3 0.0
02/09:00am 25.1 24.3 20.8 77 2.8 NNW 26 30 14 16 1019.0 1019.0 0.0
02/08:30am 24.8 23.9 20.7 78 2.7 NNW 26 30 14 16 1018.8 1018.8 0.0
02/08:00am 24.5 24.1 21.0 81 2.3 NNW 24 30 13 16 1018.4 1018.4 0.0
02/07:30am 24.4 23.5 20.7 80 2.4 N 26 30 14 16 1017.6 1017.6 0.0
02/07:00am 24.3 23.4 20.6 80 2.4 N 26 32 14 17 1017.2 1017.2 0.0
02/06:30am 24.1 22.9 20.8 82 2.2 N 28 33 15 18 1016.8 1016.8 0.0
02/06:00am 24.0 21.8 20.3 80 2.4 N 32 35 17 19 1016.3 1016.3 0.0
02/05:30am 23.9 22.0 20.2 80 2.4 N 30 37 16 20 1015.9 1015.9 0.0
02/05:00am 24.0 22.8 20.9 83 2.0 N 28 35 15 19 1015.6 1015.6 0.0
02/04:30am 24.0 22.8 20.9 83 2.0 N 28 35 15 19 1015.5 1015.5 0.0
02/04:00am 24.0 22.8 20.9 83 2.0 N 28 35 15 19 1015.4 1015.4 0.0
02/03:30am 23.9 21.7 20.4 81 2.3 N 32 37 17 20 1015.3 1015.3 0.0
02/03:00am 23.9 22.0 20.2 80 2.4 N 30 35 16 19 1015.3 1015.3 0.0
02/02:30am 23.9 22.6 20.6 82 2.2 N 28 32 15 17 1015.4 1015.4 0.0
02/02:00am 23.9 22.6 20.6 82 2.1 N 28 35 15 19 1015.3 1015.3 0.0
02/01:30am 23.9 22.1 20.4 81 2.3 NNW 30 37 16 20 1015.3 1015.3 0.0
02/01:00am 24.1 22.9 20.8 82 2.2 N 28 35 15 19 1015.4 1015.4 0.0
02/12:30am 24.0 23.1 20.7 82 2.2 NNW 26 32 14 17 1015.5 1015.5 0.0
02/12:00am 23.9 22.5 20.4 81 2.3 N 28 32 15 17 1015.6 1015.6 0.0
 
Date/Time
EST
Temp
°C
App
Temp
°C
Dew
Point
Rel
Hum
%
Delta-T
°C
Wind Press
QNH
hPa
Press
MSL
hPa
Rain
since 9 am
mm
Dir
 
Spd
km/h
Gust
km/h
Spd
kts
Gust
kts
01/11:30pm 24.0 22.6 20.5 81 2.3 N 28 33 15 18 1015.6 1015.6 0.0
01/11:00pm 24.1 22.1 20.8 82 2.2 N 32 35 17 19 1015.6 1015.6 0.0
01/10:30pm 24.0 22.7 20.7 82 2.2 N 28 33 15 18 1015.5 1015.5 0.0
01/10:00pm 24.0 22.2 20.3 80 2.4 N 30 35 16 19 1015.5 1015.5 0.0
01/09:30pm 24.0 22.5 20.3 80 2.4 N 28 33 15 18 1015.3 1015.3 0.0
01/09:00pm 24.0 22.6 20.5 81 2.3 N 28 33 15 18 1015.0 1015.0 0.0
01/08:30pm 24.2 22.6 20.7 81 2.3 N 30 35 16 19 1014.7 1014.7 0.0
01/08:00pm 24.1 21.8 20.2 79 2.5 N 32 37 17 20 1014.4 1014.4 0.0
01/07:30pm 24.1 22.8 20.6 81 2.3 N 28 33 15 18 1014.0 1014.0 0.0
01/07:00pm 24.2 22.9 20.7 81 2.3 N 28 35 15 19 1013.5 1013.5 0.0
01/06:30pm 24.2 22.9 20.7 81 2.3 N 28 35 15 19 1013.2 1013.2 0.0
01/06:00pm 24.2 22.4 20.3 79 2.5 N 30 35 16 19 1012.9 1012.9 0.0
01/05:30pm 24.5 22.4 20.6 79 2.5 N 32 39 17 21 1012.8 1012.8 0.0
01/05:00pm 24.7 22.1 20.6 78 2.7 N 35 43 19 23 1012.5 1012.5 0.0
01/04:30pm 24.7 21.7 20.6 78 2.7 N 37 43 20 23 1012.4 1012.4 0.0
01/04:00pm 24.9 22.6 20.6 77 2.8 N 33 41 18 22 1012.5 1012.5 0.0
01/03:30pm 24.6 22.6 20.7 79 2.6 NNE 32 39 17 21 1012.6 1012.6 0.0
01/03:00pm 24.6 23.1 20.9 80 2.4 NNE 30 35 16 19 1012.8 1012.8 0.0
01/02:30pm 24.4 22.9 20.3 78 2.7 NNE 28 32 15 17 1013.3 1013.3 0.0
01/02:00pm 24.9 23.9 20.4 76 2.9 N 26 30 14 16 1013.9 1013.9 0.0
01/01:30pm 24.9 23.5 20.4 76 2.9 N 28 33 15 18 1014.3 1014.3 0.0
01/01:00pm 24.9 23.9 20.4 76 2.9 N 26 30 14 16 1014.7 1014.7 0.0
01/12:30pm 25.0 24.3 20.3 75 3.1 N 24 28 13 15 1015.2 1015.2 0.0
01/12:00pm 24.9 24.0 19.9 74 3.2 N 24 28 13 15 1015.8 1015.8 0.0
01/11:30am 25.1 25.9 20.6 76 2.9 NNE 17 20 9 11 1016.4 1016.4 0.0
01/11:00am 24.9 27.3 20.8 78 2.7 ENE 9 11 5 6 1016.8 1016.8 0.0
01/10:30am 25.5 28.2 20.7 75 3.1 ESE 7 9 4 5 1017.1 1017.1 0.0
01/10:00am 24.6 27.5 20.7 79 2.5 SSE 6 7 3 4 1017.5 1017.5 0.0
01/09:30am 23.4 25.9 20.3 83 2.0 S 7 9 4 5 1017.5 1017.5 0.0
01/09:00am 22.5 24.5 20.0 86 1.6 SSW 9 11 5 6 1017.4 1017.4 0.0
01/08:30am 22.3 23.9 20.0 87 1.5 SW 11 13 6 7 1017.1 1017.1 0.0
01/08:00am 22.3 24.5 20.4 89 1.2 SW 9 9 5 5 1016.7 1016.7 0.0
01/07:30am 21.8 23.6 20.3 91 1.0 SW 11 11 6 6 1016.2 1016.2 0.0
01/07:00am 21.7 23.9 20.3 92 0.9 SW 9 13 5 7 1015.9 1015.9 0.0
01/06:30am 21.5 23.2 20.1 92 0.9 SW 11 13 6 7 1015.6 1015.6 0.0
01/06:00am 21.6 22.9 20.1 91 1.0 SW 13 15 7 8 1015.2 1015.2 0.0
01/05:30am 21.6 22.9 20.2 92 0.9 SW 13 15 7 8 1015.0 1015.0 0.0
01/05:00am 21.6 23.3 20.2 92 0.9 SW 11 13 6 7 1014.9 1014.9 0.0
01/04:30am 21.9 23.3 20.4 91 1.0 WSW 13 15 7 8 1014.5 1014.5 0.0
01/04:00am 21.7 22.7 20.2 91 1.0 SW 15 15 8 8 1014.5 1014.5 0.0
01/03:30am 22.7 24.7 20.8 89 1.2 WSW 11 13 6 7 1014.6 1014.6 0.0
01/03:00am 23.1 24.4 20.1 83 1.9 NW 13 17 7 9 1014.5 1014.5 0.0
01/02:30am 23.5 24.7 20.6 84 1.9 NNW 15 19 8 10 1014.4 1014.4 0.0
01/02:00am 23.6 24.5 20.9 85 1.8 NNW 17 22 9 12 1014.6 1014.6 0.0
01/01:30am 23.5 23.9 20.6 84 1.9 NNW 19 20 10 11 1014.6 1014.6 0.0
01/01:00am 23.5 23.8 20.8 85 1.8 NNW 20 22 11 12 1014.8 1014.8 0.0
01/12:30am 23.5 23.7 20.6 84 1.9 NNW 20 22 11 12 1015.0 1015.0 0.0
01/12:00am 23.6 23.9 20.7 84 1.9 NNW 20 24 11 13 1015.2 1015.2 0.0
 
Date/Time
EST
Temp
°C
App
Temp
°C
Dew
Point
Rel
Hum
%
Delta-T
°C
Wind Press
QNH
hPa
Press
MSL
hPa
Rain
since 9 am
mm
Dir
 
Spd
km/h
Gust
km/h
Spd
kts
Gust
kts
31/11:30pm 23.7 23.9 20.6 83 2.0 NNW 20 24 11 13 1015.3 1015.3 0.0
31/11:00pm 23.8 24.1 20.5 82 2.1 NNW 19 22 10 12 1015.4 1015.4 0.0
31/10:30pm 23.7 24.0 20.4 82 2.1 NNW 19 20 10 11 1015.5 1015.5 0.0
31/10:00pm 23.9 24.1 20.2 80 2.4 N 19 20 10 11 1015.4 1015.4 0.0
31/09:30pm 24.0 24.1 19.9 78 2.6 N 19 24 10 13 1015.3 1015.3 0.0
31/09:00pm 24.0 24.2 20.1 79 2.5 NNE 19 20 10 11 1015.3 1015.3 0.0
31/08:30pm 24.0 24.2 20.1 79 2.5 NNE 19 20 10 11 1015.1 1015.1 0.0
31/08:00pm 23.8 23.9 20.3 81 2.3 NNE 20 22 11 12 1014.7 1014.7 0.0
31/07:30pm 23.9 23.6 20.4 81 2.3 NNE 22 24 12 13 1014.2 1014.2 0.0
31/07:00pm 23.9 23.7 19.8 78 2.6 NNE 20 26 11 14 1013.7 1013.7 0.0
31/06:30pm 24.0 22.9 19.5 76 2.9 NNE 24 26 13 14 1013.3 1013.3 0.0
31/06:00pm 24.1 22.7 18.7 72 3.4 NE 24 28 13 15 1013.1 1013.1 0.0
31/05:30pm 24.1 22.6 19.4 75 3.0 NNE 26 32 14 17 1013.0 1013.0 0.0
31/05:00pm 24.3 22.6 19.8 76 2.9 NNE 28 32 15 17 1012.8 1012.8 0.0
31/04:30pm 24.2 23.2 19.7 76 2.9 NNE 24 30 13 16 1012.6 1012.6 0.0
31/04:00pm 24.1 22.7 19.6 76 2.9 NNE 26 30 14 16 1012.6 1012.6 0.0
31/03:30pm 24.3 22.7 20.0 77 2.8 NNE 28 32 15 17 1012.5 1012.5 0.0
31/03:00pm 24.1 22.8 19.8 77 2.8 NNE 26 32 14 17 1012.9 1012.9 0.0
31/02:30pm 24.0 23.4 19.7 77 2.8 NE 22 26 12 14 1013.6 1013.6 0.0
31/02:00pm 24.1 24.1 19.8 77 2.8 NE 19 20 10 11 1014.2 1014.2 0.0
31/01:30pm 24.0 24.0 19.7 77 2.8 NE 19 20 10 11 1014.5 1014.5 0.0
31/01:00pm 23.9 24.2 19.6 77 2.8 NE 17 19 9 10 1014.9 1014.9 0.0
31/12:30pm 24.8 26.7 19.8 74 3.2 E 9 13 5 7 1015.3 1015.3 0.0
31/12:00pm 25.2 26.8 20.0 73 3.4 ESE 11 15 6 8 1015.7 1015.7 0.0
31/11:30am 26.1 28.6 20.2 70 3.8 SE 7 11 4 6 1016.1 1016.1 0.0
31/11:00am 25.2 28.1 19.8 72 3.5 SSE 4 7 2 4 1016.5 1016.5 0.0
31/10:30am 24.1 26.0 19.8 77 2.8 S 9 11 5 6 1016.8 1016.8 0.0
31/10:00am 23.8 26.0 19.5 77 2.8 SSW 7 9 4 5 1017.1 1017.1 0.0

Other Formats:

Comma delimited format used in spreadsheet applications
http://www.bom.gov.au/fwo/IDQ60801/IDQ60801.94295.axf

JavaScript Object Notation format (JSON) in row-major order
http://www.bom.gov.au/fwo/IDQ60801/IDQ60801.94295.json